Terminal Aerodrome Forecast
Issued by NWS

Home | Current Version | Previous Version | Text Only | Print | Product List | Glossary On
Versions: 1 2 3 4 5 6 7 8 9 10 11 12 13 14 15 16 17 18 19 20 21
000
FTAK31 PAJN 012100 AAB
TAFAJN
TAF AMD
PAJN 012120Z 0121/0218 24009KT 3SM -SHRA BR BKN005 BKN022 OVC035
     FM012300 24010KT P6SM VCSH BKN040 OVC060
     FM020300 07003KT P6SM VCSH BKN040 OVC070
     FM020900 00000KT 4SM BR BKN070 BKN100=

USA.gov is the U.S. government's official web portal to all federal, state and local government web resources and services.